sensor_id;sensor_type;location;lat;lon;timestamp;pressure;altitude;pressure_sealevel;temperature;humidity
70971;BME280;58632;51.718;19.446;2023-05-02T00:02:16;99503.96;;;7.24;100.00
70971;BME280;58632;51.718;19.446;2023-05-02T00:04:42;99503.35;;;7.29;100.00
70971;BME280;58632;51.718;19.446;2023-05-02T00:07:07;99499.89;;;7.41;100.00
70971;BME280;58632;51.718;19.446;2023-05-02T00:09:33;99496.60;;;7.58;100.00
70971;BME280;58632;51.718;19.446;2023-05-02T00:11:58;99497.03;;;7.79;100.00
70971;BME280;58632;51.718;19.446;2023-05-02T00:14:24;99492.48;;;7.98;100.00
70971;BME280;58632;51.718;19.446;2023-05-02T00:16:49;99495.34;;;8.16;100.00
70971;BME280;58632;51.718;19.446;2023-05-02T00:19:15;99494.44;;;8.34;100.00
70971;BME280;58632;51.718;19.446;2023-05-02T00:21:40;99497.61;;;8.52;100.00
70971;BME280;58632;51.718;19.446;2023-05-02T00:24:08;99493.41;;;8.72;100.00
70971;BME280;58632;51.718;19.446;2023-05-02T00:26:34;99484.02;;;8.85;100.00
70971;BME280;58632;51.718;19.446;2023-05-02T00:28:59;99483.81;;;8.98;100.00
70971;BME280;58632;51.718;19.446;2023-05-02T00:31:25;99480.52;;;9.07;100.00
70971;BME280;58632;51.718;19.446;2023-05-02T00:33:50;99476.35;;;9.15;100.00
70971;BME280;58632;51.718;19.446;2023-05-02T00:36:16;99473.20;;;9.22;100.00
70971;BME280;58632;51.718;19.446;2023-05-02T00:38:42;99473.16;;;9.27;100.00
70971;BME280;58632;51.718;19.446;2023-05-02T00:41:07;99471.02;;;9.32;100.00
70971;BME280;58632;51.718;19.446;2023-05-02T00:43:33;99468.36;;;9.36;100.00
70971;BME280;58632;51.718;19.446;2023-05-02T00:45:58;99466.09;;;9.35;100.00
70971;BME280;58632;51.718;19.446;2023-05-02T00:48:24;99464.34;;;9.32;100.00
70971;BME280;58632;51.718;19.446;2023-05-02T00:50:50;99462.66;;;9.30;100.00
70971;BME280;58632;51.718;19.446;2023-05-02T00:53:15;99462.20;;;9.27;100.00
70971;BME280;58632;51.718;19.446;2023-05-02T00:55:41;99463.13;;;9.24;100.00
70971;BME280;58632;51.718;19.446;2023-05-02T00:58:15;99459.16;;;9.22;100.00
70971;BME280;58632;51.718;19.446;2023-05-02T01:00:50;99458.19;;;9.18;100.00
70971;BME280;58632;51.718;19.446;2023-05-02T01:10:59;99448.46;;;8.93;100.00
70971;BME280;58632;51.718;19.446;2023-05-02T01:13:28;99445.02;;;8.85;100.00
70971;BME280;58632;51.718;19.446;2023-05-02T01:15:56;99439.79;;;8.77;100.00
70971;BME280;58632;51.718;19.446;2023-05-02T01:18:23;99441.99;;;8.69;100.00
70971;BME280;58632;51.718;19.446;2023-05-02T01:20:51;99443.62;;;8.62;100.00
70971;BME280;58632;51.718;19.446;2023-05-02T01:23:23;99438.75;;;8.55;100.00
70971;BME280;58632;51.718;19.446;2023-05-02T01:30:59;99435.40;;;8.33;100.00
70971;BME280;58632;51.718;19.446;2023-05-02T01:33:25;99438.16;;;8.26;100.00
70971;BME280;58632;51.718;19.446;2023-05-02T01:35:52;99433.45;;;8.19;100.00
70971;BME280;58632;51.718;19.446;2023-05-02T01:38:18;99432.98;;;8.13;100.00
70971;BME280;58632;51.718;19.446;2023-05-02T01:40:47;99431.27;;;8.04;100.00
70971;BME280;58632;51.718;19.446;2023-05-02T01:43:14;99429.09;;;7.98;100.00
70971;BME280;58632;51.718;19.446;2023-05-02T01:45:41;99424.63;;;7.92;100.00
70971;BME280;58632;51.718;19.446;2023-05-02T01:48:07;99422.97;;;7.86;100.00
70971;BME280;58632;51.718;19.446;2023-05-02T01:50:34;99420.23;;;7.80;100.00
70971;BME280;58632;51.718;19.446;2023-05-02T01:53:00;99418.20;;;7.75;100.00
70971;BME280;58632;51.718;19.446;2023-05-02T01:55:27;99417.14;;;7.70;100.00
70971;BME280;58632;51.718;19.446;2023-05-02T01:57:53;99410.78;;;7.66;100.00
70971;BME280;58632;51.718;19.446;2023-05-02T02:00:19;99414.42;;;7.62;100.00
70971;BME280;58632;51.718;19.446;2023-05-02T02:02:45;99407.98;;;7.58;100.00
70971;BME280;58632;51.718;19.446;2023-05-02T02:05:12;99406.03;;;7.53;100.00
70971;BME280;58632;51.718;19.446;2023-05-02T02:07:38;99406.23;;;7.48;100.00
70971;BME280;58632;51.718;19.446;2023-05-02T02:10:03;99405.95;;;7.44;100.00
70971;BME280;58632;51.718;19.446;2023-05-02T02:12:42;99403.00;;;7.40;100.00
70971;BME280;58632;51.718;19.446;2023-05-02T02:15:14;99403.51;;;7.35;100.00
70971;BME280;58632;51.718;19.446;2023-05-02T02:18:00;99404.59;;;7.30;100.00
70971;BME280;58632;51.718;19.446;2023-05-02T02:20:27;99401.20;;;7.26;100.00
70971;BME280;58632;51.718;19.446;2023-05-02T02:22:53;99401.91;;;7.24;100.00
70971;BME280;58632;51.718;19.446;2023-05-02T02:25:20;99404.24;;;7.22;100.00
70971;BME280;58632;51.718;19.446;2023-05-02T02:27:46;99403.35;;;7.21;100.00
70971;BME280;58632;51.718;19.446;2023-05-02T02:30:12;99404.45;;;7.20;100.00
70971;BME280;58632;51.718;19.446;2023-05-02T02:32:38;99401.71;;;7.21;100.00
70971;BME280;58632;51.718;19.446;2023-05-02T02:35:03;99402.61;;;7.22;100.00
70971;BME280;58632;51.718;19.446;2023-05-02T02:37:30;99400.13;;;7.24;100.00
70971;BME280;58632;51.718;19.446;2023-05-02T02:47:49;99400.66;;;7.37;100.00
70971;BME280;58632;51.718;19.446;2023-05-02T02:53:07;99401.15;;;7.48;100.00
70971;BME280;58632;51.718;19.446;2023-05-02T02:58:17;99402.89;;;7.57;100.00
70971;BME280;58632;51.718;19.446;2023-05-02T03:00:44;99399.98;;;7.60;100.00
70971;BME280;58632;51.718;19.446;2023-05-02T03:03:11;99402.67;;;7.64;100.00
70971;BME280;58632;51.718;19.446;2023-05-02T03:05:38;99401.53;;;7.68;100.00
70971;BME280;58632;51.718;19.446;2023-05-02T03:08:03;99400.89;;;7.72;100.00
70971;BME280;58632;51.718;19.446;2023-05-02T03:10:31;99399.22;;;7.77;100.00
70971;BME280;58632;51.718;19.446;2023-05-02T03:12:57;99402.30;;;7.83;100.00
70971;BME280;58632;51.718;19.446;2023-05-02T03:18:07;99393.18;;;7.97;100.00
70971;BME280;58632;51.718;19.446;2023-05-02T03:20:32;99393.40;;;8.08;100.00
70971;BME280;58632;51.718;19.446;2023-05-02T03:22:58;99389.49;;;8.19;100.00
70971;BME280;58632;51.718;19.446;2023-05-02T03:25:23;99390.98;;;8.27;100.00
70971;BME280;58632;51.718;19.446;2023-05-02T03:27:48;99389.52;;;8.37;100.00
70971;BME280;58632;51.718;19.446;2023-05-02T03:30:14;99392.27;;;8.45;100.00
70971;BME280;58632;51.718;19.446;2023-05-02T03:32:40;99392.36;;;8.51;100.00
70971;BME280;58632;51.718;19.446;2023-05-02T03:35:05;99397.95;;;8.60;100.00
70971;BME280;58632;51.718;19.446;2023-05-02T03:37:32;99391.73;;;8.63;100.00
70971;BME280;58632;51.718;19.446;2023-05-02T03:39:58;99397.77;;;8.69;100.00
70971;BME280;58632;51.718;19.446;2023-05-02T03:42:23;99398.95;;;8.76;100.00
70971;BME280;58632;51.718;19.446;2023-05-02T03:44:50;99399.95;;;8.82;100.00
70971;BME280;58632;51.718;19.446;2023-05-02T03:47:16;99403.00;;;8.90;100.00
70971;BME280;58632;51.718;19.446;2023-05-02T03:49:41;99396.84;;;8.97;100.00
70971;BME280;58632;51.718;19.446;2023-05-02T03:52:06;99399.83;;;9.02;100.00
70971;BME280;58632;51.718;19.446;2023-05-02T03:54:32;99399.97;;;9.07;100.00
70971;BME280;58632;51.718;19.446;2023-05-02T03:56:57;99402.95;;;9.11;100.00
70971;BME280;58632;51.718;19.446;2023-05-02T03:59:23;99404.77;;;9.16;100.00
70971;BME280;58632;51.718;19.446;2023-05-02T04:01:49;99406.08;;;9.21;100.00
70971;BME280;58632;51.718;19.446;2023-05-02T04:04:14;99408.86;;;9.28;100.00
70971;BME280;58632;51.718;19.446;2023-05-02T04:06:40;99407.98;;;9.35;100.00
70971;BME280;58632;51.718;19.446;2023-05-02T04:09:06;99413.02;;;9.43;100.00
70971;BME280;58632;51.718;19.446;2023-05-02T04:11:31;99412.08;;;9.51;100.00
70971;BME280;58632;51.718;19.446;2023-05-02T04:13:57;99410.35;;;9.60;100.00
70971;BME280;58632;51.718;19.446;2023-05-02T04:16:22;99412.33;;;9.70;100.00
70971;BME280;58632;51.718;19.446;2023-05-02T04:18:47;99412.65;;;9.81;100.00
70971;BME280;58632;51.718;19.446;2023-05-02T04:21:13;99419.17;;;9.91;100.00
70971;BME280;58632;51.718;19.446;2023-05-02T04:23:38;99412.23;;;9.99;100.00
70971;BME280;58632;51.718;19.446;2023-05-02T04:26:04;99416.48;;;10.07;100.00
70971;BME280;58632;51.718;19.446;2023-05-02T04:28:30;99418.50;;;10.18;100.00
70971;BME280;58632;51.718;19.446;2023-05-02T04:30:55;99418.38;;;10.30;100.00
70971;BME280;58632;51.718;19.446;2023-05-02T04:33:21;99416.11;;;10.42;100.00
70971;BME280;58632;51.718;19.446;2023-05-02T04:35:47;99415.17;;;10.54;100.00
70971;BME280;58632;51.718;19.446;2023-05-02T04:38:13;99416.70;;;10.64;100.00
70971;BME280;58632;51.718;19.446;2023-05-02T04:40:38;99416.96;;;10.73;100.00
70971;BME280;58632;51.718;19.446;2023-05-02T04:43:04;99420.06;;;10.83;100.00
70971;BME280;58632;51.718;19.446;2023-05-02T04:45:29;99418.57;;;10.93;100.00
70971;BME280;58632;51.718;19.446;2023-05-02T04:47:54;99419.48;;;11.07;100.00
70971;BME280;58632;51.718;19.446;2023-05-02T04:50:20;99417.17;;;11.29;100.00
70971;BME280;58632;51.718;19.446;2023-05-02T04:52:45;99416.56;;;11.56;100.00
70971;BME280;58632;51.718;19.446;2023-05-02T04:55:11;99414.52;;;11.84;100.00
70971;BME280;58632;51.718;19.446;2023-05-02T04:57:39;99414.35;;;12.16;100.00
70971;BME280;58632;51.718;19.446;2023-05-02T05:00:04;99417.17;;;12.50;100.00
70971;BME280;58632;51.718;19.446;2023-05-02T05:02:30;99420.80;;;12.88;100.00
70971;BME280;58632;51.718;19.446;2023-05-02T05:04:55;99423.88;;;13.13;100.00
70971;BME280;58632;51.718;19.446;2023-05-02T05:07:21;99425.86;;;13.29;100.00
70971;BME280;58632;51.718;19.446;2023-05-02T05:09:46;99426.36;;;13.49;100.00
70971;BME280;58632;51.718;19.446;2023-05-02T05:12:12;99427.04;;;13.68;100.00
70971;BME280;58632;51.718;19.446;2023-05-02T05:14:37;99425.13;;;13.87;100.00
70971;BME280;58632;51.718;19.446;2023-05-02T05:17:03;99427.91;;;14.13;100.00
70971;BME280;58632;51.718;19.446;2023-05-02T05:19:28;99426.40;;;14.35;100.00
70971;BME280;58632;51.718;19.446;2023-05-02T05:21:53;99431.98;;;14.69;100.00
70971;BME280;58632;51.718;19.446;2023-05-02T05:24:19;99425.73;;;15.02;100.00
70971;BME280;58632;51.718;19.446;2023-05-02T05:26:45;99422.77;;;15.42;100.00
70971;BME280;58632;51.718;19.446;2023-05-02T05:29:11;99428.70;;;15.95;100.00
70971;BME280;58632;51.718;19.446;2023-05-02T05:31:36;99426.19;;;16.41;100.00
70971;BME280;58632;51.718;19.446;2023-05-02T05:34:02;99431.91;;;17.05;96.86
70971;BME280;58632;51.718;19.446;2023-05-02T05:36:28;99428.14;;;17.57;93.67
70971;BME280;58632;51.718;19.446;2023-05-02T05:38:54;99431.84;;;17.95;88.59
70971;BME280;58632;51.718;19.446;2023-05-02T05:41:19;99437.95;;;17.98;86.68
70971;BME280;58632;51.718;19.446;2023-05-02T05:43:46;99433.56;;;17.87;81.67
70971;BME280;58632;51.718;19.446;2023-05-02T05:46:11;99427.35;;;17.71;80.61
70971;BME280;58632;51.718;19.446;2023-05-02T05:48:36;99430.90;;;17.63;79.27
70971;BME280;58632;51.718;19.446;2023-05-02T05:51:04;99433.08;;;17.79;79.16
70971;BME280;58632;51.718;19.446;2023-05-02T05:53:32;99434.13;;;18.12;76.83
70971;BME280;58632;51.718;19.446;2023-05-02T05:55:57;99438.70;;;18.74;75.80
70971;BME280;58632;51.718;19.446;2023-05-02T05:58:23;99434.88;;;19.23;70.92
70971;BME280;58632;51.718;19.446;2023-05-02T06:00:51;99434.61;;;19.74;69.32
70971;BME280;58632;51.718;19.446;2023-05-02T06:03:16;99437.34;;;20.15;64.09
70971;BME280;58632;51.718;19.446;2023-05-02T06:05:42;99440.39;;;20.42;65.71
70971;BME280;58632;51.718;19.446;2023-05-02T06:08:07;99443.63;;;20.98;62.61
70971;BME280;58632;51.718;19.446;2023-05-02T06:10:33;99446.23;;;21.34;59.19
70971;BME280;58632;51.718;19.446;2023-05-02T06:12:58;99444.75;;;21.70;56.59
70971;BME280;58632;51.718;19.446;2023-05-02T06:15:24;99448.34;;;22.01;54.37
70971;BME280;58632;51.718;19.446;2023-05-02T06:17:49;99447.39;;;22.11;52.25
70971;BME280;58632;51.718;19.446;2023-05-02T06:20:15;99453.45;;;22.25;53.54
70971;BME280;58632;51.718;19.446;2023-05-02T06:22:40;99452.13;;;22.33;50.74
70971;BME280;58632;51.718;19.446;2023-05-02T06:25:06;99456.42;;;22.23;50.06
70971;BME280;58632;51.718;19.446;2023-05-02T06:27:33;99458.71;;;22.27;50.23
70971;BME280;58632;51.718;19.446;2023-05-02T06:30:00;99461.13;;;22.18;49.59
70971;BME280;58632;51.718;19.446;2023-05-02T06:32:29;99465.04;;;22.05;48.68
70971;BME280;58632;51.718;19.446;2023-05-02T06:34:55;99467.29;;;22.00;51.15
70971;BME280;58632;51.718;19.446;2023-05-02T06:37:21;99472.08;;;22.13;49.81
70971;BME280;58632;51.718;19.446;2023-05-02T06:39:46;99469.48;;;22.23;51.37
70971;BME280;58632;51.718;19.446;2023-05-02T06:42:12;99470.48;;;22.40;51.31
70971;BME280;58632;51.718;19.446;2023-05-02T06:44:37;99474.73;;;22.68;49.81
70971;BME280;58632;51.718;19.446;2023-05-02T06:47:05;99476.33;;;22.67;47.37
70971;BME280;58632;51.718;19.446;2023-05-02T06:49:31;99481.39;;;22.63;47.00
70971;BME280;58632;51.718;19.446;2023-05-02T06:51:57;99480.15;;;22.68;47.59
70971;BME280;58632;51.718;19.446;2023-05-02T06:54:22;99482.45;;;22.78;47.72
70971;BME280;58632;51.718;19.446;2023-05-02T06:56:48;99495.21;;;22.99;47.61
70971;BME280;58632;51.718;19.446;2023-05-02T06:59:13;99494.85;;;23.20;47.31
70971;BME280;58632;51.718;19.446;2023-05-02T07:01:41;99496.42;;;23.37;46.41
70971;BME280;58632;51.718;19.446;2023-05-02T07:04:06;99495.66;;;23.54;46.64
70971;BME280;58632;51.718;19.446;2023-05-02T07:06:33;99502.49;;;23.73;46.71
70971;BME280;58632;51.718;19.446;2023-05-02T07:08:59;99503.33;;;23.83;45.71
70971;BME280;58632;51.718;19.446;2023-05-02T07:11:25;99509.63;;;23.90;44.89
70971;BME280;58632;51.718;19.446;2023-05-02T07:13:52;99511.41;;;23.94;44.83
70971;BME280;58632;51.718;19.446;2023-05-02T07:16:19;99517.21;;;24.03;44.50
70971;BME280;58632;51.718;19.446;2023-05-02T07:18:45;99521.26;;;24.05;41.92
70971;BME280;58632;51.718;19.446;2023-05-02T07:21:11;99528.04;;;23.73;41.72
70971;BME280;58632;51.718;19.446;2023-05-02T07:23:36;99526.59;;;23.45;42.39
70971;BME280;58632;51.718;19.446;2023-05-02T07:26:02;99518.48;;;23.35;43.62
70971;BME280;58632;51.718;19.446;2023-05-02T07:28:29;99527.00;;;23.43;44.55
70971;BME280;58632;51.718;19.446;2023-05-02T07:30:57;99538.11;;;23.57;43.87
70971;BME280;58632;51.718;19.446;2023-05-02T07:33:22;99539.48;;;23.71;45.28
70971;BME280;58632;51.718;19.446;2023-05-02T07:35:48;99541.77;;;23.96;45.81
70971;BME280;58632;51.718;19.446;2023-05-02T07:38:14;99546.67;;;24.04;45.87
70971;BME280;58632;51.718;19.446;2023-05-02T07:40:40;99547.18;;;23.90;44.52
70971;BME280;58632;51.718;19.446;2023-05-02T07:43:05;99546.77;;;23.61;44.66
70971;BME280;58632;51.718;19.446;2023-05-02T07:45:31;99550.77;;;23.30;44.77
70971;BME280;58632;51.718;19.446;2023-05-02T07:47:56;99549.80;;;22.93;45.22
70971;BME280;58632;51.718;19.446;2023-05-02T07:50:22;99559.22;;;22.72;46.21
70971;BME280;58632;51.718;19.446;2023-05-02T07:52:47;99562.41;;;22.60;46.48
70971;BME280;58632;51.718;19.446;2023-05-02T07:55:13;99562.59;;;22.55;48.19
70971;BME280;58632;51.718;19.446;2023-05-02T07:57:39;99564.04;;;22.77;49.52
70971;BME280;58632;51.718;19.446;2023-05-02T08:00:05;99565.92;;;22.93;48.17
70971;BME280;58632;51.718;19.446;2023-05-02T08:02:34;99572.11;;;22.86;46.65
70971;BME280;58632;51.718;19.446;2023-05-02T08:05:01;99574.05;;;22.71;46.68
70971;BME280;58632;51.718;19.446;2023-05-02T08:07:26;99570.23;;;22.70;47.74
70971;BME280;58632;51.718;19.446;2023-05-02T08:09:52;99571.05;;;22.67;48.82
70971;BME280;58632;51.718;19.446;2023-05-02T08:12:17;99568.84;;;22.53;48.10
70971;BME280;58632;51.718;19.446;2023-05-02T08:14:42;99573.83;;;22.45;49.65
70971;BME280;58632;51.718;19.446;2023-05-02T08:17:08;99575.83;;;22.56;51.13
70971;BME280;58632;51.718;19.446;2023-05-02T08:19:33;99576.56;;;22.65;50.32
70971;BME280;58632;51.718;19.446;2023-05-02T08:21:59;99587.20;;;22.60;50.98
70971;BME280;58632;51.718;19.446;2023-05-02T08:24:27;99588.77;;;22.50;51.63
70971;BME280;58632;51.718;19.446;2023-05-02T08:26:55;99593.80;;;22.36;51.63
70971;BME280;58632;51.718;19.446;2023-05-02T08:29:21;99595.54;;;22.24;53.21
70971;BME280;58632;51.718;19.446;2023-05-02T08:31:47;99601.52;;;22.19;53.17
70971;BME280;58632;51.718;19.446;2023-05-02T08:34:12;99597.80;;;22.09;53.93
70971;BME280;58632;51.718;19.446;2023-05-02T08:36:37;99599.67;;;21.99;55.32
70971;BME280;58632;51.718;19.446;2023-05-02T08:39:03;99603.02;;;21.98;56.84
70971;BME280;58632;51.718;19.446;2023-05-02T08:41:28;99608.50;;;21.75;55.20
70971;BME280;58632;51.718;19.446;2023-05-02T08:43:55;99611.50;;;21.39;56.98
70971;BME280;58632;51.718;19.446;2023-05-02T08:46:20;99614.84;;;21.10;57.80
70971;BME280;58632;51.718;19.446;2023-05-02T08:48:46;99623.63;;;20.73;59.22
70971;BME280;58632;51.718;19.446;2023-05-02T08:51:14;99630.98;;;20.40;61.07
70971;BME280;58632;51.718;19.446;2023-05-02T08:53:40;99636.04;;;20.15;63.74
70971;BME280;58632;51.718;19.446;2023-05-02T08:56:06;99637.14;;;19.81;67.01
70971;BME280;58632;51.718;19.446;2023-05-02T08:58:32;99641.19;;;19.49;69.95
70971;BME280;58632;51.718;19.446;2023-05-02T09:01:00;99647.58;;;19.13;72.80
70971;BME280;58632;51.718;19.446;2023-05-02T09:03:33;99647.98;;;18.88;73.48
70971;BME280;58632;51.718;19.446;2023-05-02T09:06:03;99654.13;;;18.73;74.64
70971;BME280;58632;51.718;19.446;2023-05-02T09:08:29;99658.36;;;18.61;76.77
70971;BME280;58632;51.718;19.446;2023-05-02T09:10:54;99657.11;;;18.48;79.55
70971;BME280;58632;51.718;19.446;2023-05-02T09:13:26;99656.70;;;18.41;84.36
70971;BME280;58632;51.718;19.446;2023-05-02T09:18:27;99662.36;;;18.38;91.56
70971;BME280;58632;51.718;19.446;2023-05-02T09:20:52;99666.93;;;18.48;95.30
70971;BME280;58632;51.718;19.446;2023-05-02T09:23:18;99664.52;;;18.67;96.48
70971;BME280;58632;51.718;19.446;2023-05-02T09:25:44;99667.44;;;19.01;98.44
70971;BME280;58632;51.718;19.446;2023-05-02T09:28:10;99668.23;;;19.36;98.51
70971;BME280;58632;51.718;19.446;2023-05-02T09:30:35;99667.98;;;19.65;96.09
70971;BME280;58632;51.718;19.446;2023-05-02T09:33:00;99668.63;;;19.88;92.07
70971;BME280;58632;51.718;19.446;2023-05-02T09:35:26;99677.50;;;20.12;91.00
70971;BME280;58632;51.718;19.446;2023-05-02T09:37:55;99676.56;;;20.33;90.25
70971;BME280;58632;51.718;19.446;2023-05-02T09:40:20;99681.85;;;20.59;84.65
70971;BME280;58632;51.718;19.446;2023-05-02T09:42:46;99688.94;;;20.66;83.94
70971;BME280;58632;51.718;19.446;2023-05-02T09:45:24;99687.95;;;20.78;81.96
70971;BME280;58632;51.718;19.446;2023-05-02T09:47:50;99691.48;;;20.91;78.24
70971;BME280;58632;51.718;19.446;2023-05-02T09:50:32;99690.86;;;21.05;78.84
70971;BME280;58632;51.718;19.446;2023-05-02T09:53:07;99691.35;;;21.11;78.27
70971;BME280;58632;51.718;19.446;2023-05-02T09:55:36;99698.84;;;21.17;77.49
70971;BME280;58632;51.718;19.446;2023-05-02T09:58:02;99699.96;;;21.31;78.44
70971;BME280;58632;51.718;19.446;2023-05-02T10:00:41;99703.02;;;21.42;77.82
70971;BME280;58632;51.718;19.446;2023-05-02T10:03:07;99705.09;;;21.56;75.78
70971;BME280;58632;51.718;19.446;2023-05-02T10:05:35;99708.35;;;21.67;73.16
70971;BME280;58632;51.718;19.446;2023-05-02T10:08:00;99712.98;;;21.69;72.92
70971;BME280;58632;51.718;19.446;2023-05-02T10:10:27;99713.69;;;21.53;71.77
70971;BME280;58632;51.718;19.446;2023-05-02T10:12:53;99717.87;;;21.34;73.12
70971;BME280;58632;51.718;19.446;2023-05-02T10:15:19;99726.86;;;21.33;77.57
70971;BME280;58632;51.718;19.446;2023-05-02T10:17:49;99730.44;;;21.28;76.81
70971;BME280;58632;51.718;19.446;2023-05-02T10:20:21;99726.86;;;21.34;78.06
70971;BME280;58632;51.718;19.446;2023-05-02T10:22:47;99728.81;;;21.45;77.93
70971;BME280;58632;51.718;19.446;2023-05-02T10:25:13;99737.89;;;21.59;75.63
70971;BME280;58632;51.718;19.446;2023-05-02T10:27:39;99733.11;;;21.67;76.09
70971;BME280;58632;51.718;19.446;2023-05-02T10:30:05;99732.15;;;21.81;77.98
70971;BME280;58632;51.718;19.446;2023-05-02T10:32:32;99735.46;;;22.02;74.11
70971;BME280;58632;51.718;19.446;2023-05-02T10:35:02;99739.27;;;22.13;69.68
70971;BME280;58632;51.718;19.446;2023-05-02T10:37:28;99736.01;;;22.11;68.55
70971;BME280;58632;51.718;19.446;2023-05-02T10:39:54;99734.17;;;22.11;69.38
70971;BME280;58632;51.718;19.446;2023-05-02T10:42:19;99740.89;;;22.02;70.78
70971;BME280;58632;51.718;19.446;2023-05-02T10:44:45;99743.05;;;21.97;68.93
70971;BME280;58632;51.718;19.446;2023-05-02T10:47:44;99743.67;;;21.95;67.78
70971;BME280;58632;51.718;19.446;2023-05-02T10:50:02;99742.23;;;21.98;69.38
70971;BME280;58632;51.718;19.446;2023-05-02T10:52:30;99743.52;;;21.99;70.96
70971;BME280;58632;51.718;19.446;2023-05-02T11:00:26;99749.05;;;21.57;64.82
70971;BME280;58632;51.718;19.446;2023-05-02T11:02:51;99751.78;;;21.36;66.05
70971;BME280;58632;51.718;19.446;2023-05-02T11:05:17;99760.19;;;21.24;66.99
70971;BME280;58632;51.718;19.446;2023-05-02T11:07:42;99764.09;;;21.33;68.00
70971;BME280;58632;51.718;19.446;2023-05-02T11:12:43;99759.62;;;21.52;66.17
70971;BME280;58632;51.718;19.446;2023-05-02T11:15:12;99763.67;;;21.54;64.53
70971;BME280;58632;51.718;19.446;2023-05-02T11:20:39;99777.52;;;21.52;67.26
70971;BME280;58632;51.718;19.446;2023-05-02T11:25:57;99782.44;;;21.39;66.99
70971;BME280;58632;51.718;19.446;2023-05-02T11:28:39;99784.29;;;21.25;67.21
70971;BME280;58632;51.718;19.446;2023-05-02T11:31:05;99782.65;;;21.32;67.78
70971;BME280;58632;51.718;19.446;2023-05-02T11:33:31;99783.20;;;21.37;68.27
70971;BME280;58632;51.718;19.446;2023-05-02T11:35:56;99782.76;;;21.41;70.36
70971;BME280;58632;51.718;19.446;2023-05-02T11:38:22;99791.39;;;21.57;69.42
70971;BME280;58632;51.718;19.446;2023-05-02T11:40:49;99790.91;;;21.65;66.85
70971;BME280;58632;51.718;19.446;2023-05-02T11:43:16;99795.60;;;21.72;65.66
70971;BME280;58632;51.718;19.446;2023-05-02T11:45:42;99797.36;;;21.71;64.86
70971;BME280;58632;51.718;19.446;2023-05-02T11:48:08;99803.95;;;21.60;65.27
70971;BME280;58632;51.718;19.446;2023-05-02T11:50:41;99801.72;;;21.49;68.05
70971;BME280;58632;51.718;19.446;2023-05-02T11:53:10;99807.20;;;21.45;69.32
70971;BME280;58632;51.718;19.446;2023-05-02T11:55:36;99807.39;;;21.32;67.61
70971;BME280;58632;51.718;19.446;2023-05-02T11:58:02;99806.40;;;21.20;68.61
70971;BME280;58632;51.718;19.446;2023-05-02T12:00:27;99811.86;;;21.09;70.33
70971;BME280;58632;51.718;19.446;2023-05-02T12:02:52;99815.19;;;21.07;72.70
70971;BME280;58632;51.718;19.446;2023-05-02T12:05:26;99816.54;;;21.09;73.53
70971;BME280;58632;51.718;19.446;2023-05-02T12:07:52;99819.02;;;21.11;75.31
70971;BME280;58632;51.718;19.446;2023-05-02T12:10:17;99820.46;;;21.13;74.56
70971;BME280;58632;51.718;19.446;2023-05-02T12:12:43;99819.92;;;21.18;74.42
70971;BME280;58632;51.718;19.446;2023-05-02T12:15:09;99824.77;;;21.19;75.71
70971;BME280;58632;51.718;19.446;2023-05-02T12:17:46;99826.23;;;21.25;74.34
70971;BME280;58632;51.718;19.446;2023-05-02T12:20:13;99827.98;;;21.28;75.13
70971;BME280;58632;51.718;19.446;2023-05-02T12:22:39;99829.08;;;21.23;76.60
70971;BME280;58632;51.718;19.446;2023-05-02T12:25:05;99827.84;;;21.09;74.44
70971;BME280;58632;51.718;19.446;2023-05-02T12:27:31;99827.09;;;21.00;75.23
70971;BME280;58632;51.718;19.446;2023-05-02T12:29:59;99827.65;;;20.98;76.89
70971;BME280;58632;51.718;19.446;2023-05-02T12:32:28;99831.32;;;21.03;78.63
70971;BME280;58632;51.718;19.446;2023-05-02T12:34:57;99836.85;;;21.13;77.79
70971;BME280;58632;51.718;19.446;2023-05-02T12:37:23;99837.57;;;21.16;75.77
70971;BME280;58632;51.718;19.446;2023-05-02T12:39:49;99842.87;;;21.08;77.33
70971;BME280;58632;51.718;19.446;2023-05-02T12:42:15;99838.86;;;20.99;76.82
70971;BME280;58632;51.718;19.446;2023-05-02T12:44:44;99841.36;;;20.89;77.22
70971;BME280;58632;51.718;19.446;2023-05-02T12:47:10;99837.68;;;20.84;79.16
70971;BME280;58632;51.718;19.446;2023-05-02T12:52:44;99837.99;;;20.82;82.23
70971;BME280;58632;51.718;19.446;2023-05-02T12:55:18;99841.60;;;20.88;82.29
70971;BME280;58632;51.718;19.446;2023-05-02T12:57:44;99843.14;;;20.96;82.55
70971;BME280;58632;51.718;19.446;2023-05-02T13:00:10;99845.78;;;21.02;82.04
70971;BME280;58632;51.718;19.446;2023-05-02T13:02:35;99842.14;;;21.06;84.61
70971;BME280;58632;51.718;19.446;2023-05-02T13:05:01;99844.38;;;21.03;84.49
70971;BME280;58632;51.718;19.446;2023-05-02T13:07:26;99847.70;;;21.02;82.89
70971;BME280;58632;51.718;19.446;2023-05-02T13:09:52;99847.41;;;20.92;84.42
70971;BME280;58632;51.718;19.446;2023-05-02T13:12:17;99852.69;;;20.97;84.09
70971;BME280;58632;51.718;19.446;2023-05-02T13:14:42;99852.23;;;20.99;85.20
70971;BME280;58632;51.718;19.446;2023-05-02T13:17:08;99855.39;;;21.14;83.69
70971;BME280;58632;51.718;19.446;2023-05-02T13:19:34;99855.05;;;21.27;83.16
70971;BME280;58632;51.718;19.446;2023-05-02T13:21:59;99857.19;;;21.27;83.14
70971;BME280;58632;51.718;19.446;2023-05-02T13:24:25;99855.04;;;21.29;82.23
70971;BME280;58632;51.718;19.446;2023-05-02T13:26:50;99853.91;;;21.44;82.00
70971;BME280;58632;51.718;19.446;2023-05-02T13:29:16;99854.97;;;21.50;82.71
70971;BME280;58632;51.718;19.446;2023-05-02T13:31:41;99851.15;;;21.56;81.01
70971;BME280;58632;51.718;19.446;2023-05-02T13:34:06;99852.01;;;21.47;81.68
70971;BME280;58632;51.718;19.446;2023-05-02T13:36:32;99848.63;;;21.37;81.57